Time;durP1;ratioP1;P1;durP2;ratioP2;P2;SDS_P1;SDS_P2;PMS_P1;PMS_P2;Temp;Humidity;BMP_temperature;BMP_pressure;BME280_temperature;BME280_humidity;BME280_pressure;Samples;Min_cycle;Max_cycle;Signal;HPM_P1;HPM_P2
2021/04/14 00:01:32;;;;;;;12.90;7.35;;;;;;;2.05;67.72;103274.22;5136015;27;20118;-43
2021/04/14 00:03:58;;;;;;;14.02;8.98;;;;;;;2.13;67.05;103271.78;5135144;27;20098;-43
2021/04/14 00:06:23;;;;;;;11.10;7.27;;;;;;;2.07;67.16;103264.25;5135913;27;20051;-43
2021/04/14 00:08:48;;;;;;;11.20;6.73;;;;;;;2.04;66.94;103264.47;5136114;27;20027;-43
2021/04/14 00:11:18;;;;;;;12.63;7.30;;;;;;;1.95;67.11;103262.50;5135420;27;20522;-43
2021/04/14 00:13:44;;;;;;;14.77;7.00;;;;;;;1.93;67.29;103272.44;5135868;27;20038;-43
2021/04/14 00:16:20;;;;;;;;;;;;;;;2.10;65.50;103264.03;5136770;27;20383;-43
2021/04/14 00:18:46;;;;;;;12.57;7.00;;;;;;;1.92;67.58;103268.09;5136068;27;19907;-43
2021/04/14 00:21:12;;;;;;;13.90;7.28;;;;;;;1.88;67.09;103272.78;5136112;27;20073;-43
2021/04/14 00:23:38;;;;;;;9.65;6.63;;;;;;;1.89;67.35;103265.63;5135623;27;20058;-43
2021/04/14 00:26:06;;;;;;;14.00;7.00;;;;;;;1.88;68.01;103272.78;5135737;27;20031;-43
2021/04/14 00:28:32;;;;;;;10.55;7.32;;;;;;;1.81;68.35;103268.91;5135002;27;20033;-43
2021/04/14 00:30:57;;;;;;;9.20;6.00;;;;;;;1.77;68.33;103265.59;5135368;27;20372;-43
2021/04/14 00:33:23;;;;;;;10.87;6.90;;;;;;;1.69;67.62;103262.63;5135041;27;20111;-43
2021/04/14 00:35:49;;;;;;;9.83;7.00;;;;;;;1.65;68.24;103261.16;5135254;27;20026;-43
2021/04/14 00:38:18;;;;;;;11.15;7.00;;;;;;;1.58;67.86;103254.59;5135008;27;20031;-43
2021/04/14 00:40:46;;;;;;;9.85;6.57;;;;;;;1.57;67.49;103255.56;5135047;27;20159;-43
2021/04/14 00:43:27;;;;;;;12.23;7.28;;;;;;;1.56;68.55;103251.16;5134880;27;20115;-43
2021/04/14 00:45:53;;;;;;;11.50;6.72;;;;;;;1.49;68.43;103249.91;5135632;27;20031;-43
2021/04/14 00:48:18;;;;;;;10.93;6.68;;;;;;;1.54;68.87;103251.28;5134972;27;20363;-43
2021/04/14 00:50:44;;;;;;;14.73;7.17;;;;;;;1.55;68.91;103260.13;5135585;27;20084;-42
2021/04/14 00:53:09;;;;;;;12.27;6.83;;;;;;;1.52;68.79;103255.88;5134905;27;20027;-43
2021/04/14 00:55:36;;;;;;;10.27;7.22;;;;;;;1.48;68.77;103256.22;5134762;27;20031;-43
2021/04/14 00:58:02;;;;;;;10.55;6.45;;;;;;;1.47;68.85;103251.88;5134893;27;20109;-43
2021/04/14 01:00:30;;;;;;;10.27;6.30;;;;;;;1.49;67.85;103247.25;5134876;27;20045;-43
2021/04/14 01:02:56;;;;;;;12.93;6.10;;;;;;;1.42;68.95;103248.69;5134256;27;20035;-43
2021/04/14 01:05:21;;;;;;;9.15;6.22;;;;;;;1.44;68.52;103247.59;5135182;27;20128;-43
2021/04/14 01:07:50;;;;;;;8.25;5.88;;;;;;;1.42;68.95;103252.19;5134189;27;20064;-43
2021/04/14 01:10:16;;;;;;;13.20;7.05;;;;;;;1.44;69.70;103241.41;5134777;27;20125;-43
2021/04/14 01:12:42;;;;;;;8.93;5.63;;;;;;;1.46;69.18;103242.97;5134435;27;20487;-43
2021/04/14 01:15:11;;;;;;;9.30;5.85;;;;;;;1.49;70.13;103240.09;5133859;27;20070;-43
2021/04/14 01:17:36;;;;;;;11.55;6.20;;;;;;;1.41;70.36;103242.47;5134260;27;20027;-43
2021/04/14 01:20:04;;;;;;;9.93;6.13;;;;;;;1.39;70.23;103241.75;5134372;27;20467;-43
2021/04/14 01:22:29;;;;;;;9.30;6.13;;;;;;;1.34;70.03;103233.22;5133730;27;20406;-43
2021/04/14 01:24:54;;;;;;;9.70;5.77;;;;;;;1.43;70.19;103234.38;5134339;27;20038;-43
2021/04/14 01:27:20;;;;;;;10.47;6.63;;;;;;;1.44;69.98;103230.75;5134938;27;20039;-42
2021/04/14 01:29:45;;;;;;;11.23;5.57;;;;;;;1.44;70.61;103220.09;5134727;27;20423;-43
2021/04/14 01:32:10;;;;;;;10.57;6.07;;;;;;;1.51;70.55;103229.31;5133038;28;20114;-43
2021/04/14 01:34:36;;;;;;;8.60;5.67;;;;;;;1.53;70.52;103230.06;5134642;27;20110;-42
2021/04/14 01:37:01;;;;;;;9.03;5.07;;;;;;;1.51;70.33;103226.66;5134260;27;20114;-42
2021/04/14 01:39:26;;;;;;;8.07;5.83;;;;;;;1.57;70.52;103228.88;5133949;27;20031;-43
2021/04/14 01:41:52;;;;;;;10.23;6.10;;;;;;;1.60;70.13;103233.13;5133896;27;20049;-43
2021/04/14 01:44:17;;;;;;;8.73;5.27;;;;;;;1.57;70.92;103231.56;5134481;27;20030;-43
2021/04/14 01:46:43;;;;;;;8.57;6.15;;;;;;;1.57;70.97;103231.56;5134514;27;20028;-43
2021/04/14 01:49:10;;;;;;;9.80;5.55;;;;;;;1.57;71.14;103233.38;5134093;27;20070;-43
2021/04/14 01:51:35;;;;;;;9.13;6.13;;;;;;;1.56;71.60;103232.50;5134627;27;20451;-43
2021/04/14 01:54:02;;;;;;;9.40;6.17;;;;;;;1.61;71.26;103227.69;5133848;27;20023;-42
2021/04/14 01:56:28;;;;;;;11.77;5.82;;;;;;;1.67;71.75;103232.56;5133915;27;20494;-43
2021/04/14 01:58:54;;;;;;;;;;;;;;;1.85;69.35;103235.66;5134313;27;20381;-43
2021/04/14 02:01:20;;;;;;;8.32;6.07;;;;;;;1.80;70.83;103225.31;5134070;27;19997;-43
2021/04/14 02:03:46;;;;;;;11.85;6.93;;;;;;;1.76;71.09;103231.03;5134045;27;20023;-43
2021/04/14 02:06:14;;;;;;;12.90;6.20;;;;;;;1.75;70.64;103224.81;5134042;27;20023;-42
2021/04/14 02:08:39;;;;;;;9.50;6.00;;;;;;;1.72;70.74;103216.22;5133832;27;20019;-42
2021/04/14 02:11:06;;;;;;;10.63;6.20;;;;;;;1.75;70.63;103215.97;5134248;27;20023;-42
2021/04/14 02:13:35;;;;;;;12.40;6.25;;;;;;;1.75;70.99;103213.31;5133037;28;20043;-43
2021/04/14 02:16:02;;;;;;;9.05;5.90;;;;;;;1.77;71.00;103217.56;5133627;27;20023;-43
2021/04/14 02:18:28;;;;;;;7.45;5.43;;;;;;;1.79;70.81;103218.28;5133630;27;20027;-43
2021/04/14 02:20:54;;;;;;;7.85;6.07;;;;;;;1.87;70.93;103214.22;5134501;27;20136;-43
2021/04/14 02:23:41;;;;;;;6.53;5.32;;;;;;;1.97;70.30;103212.56;5133496;27;20506;-43
2021/04/14 02:26:13;;;;;;;8.67;5.67;;;;;;;1.98;71.14;103214.25;5136351;27;20374;-44
2021/04/14 02:28:38;;;;;;;6.55;5.00;;;;;;;2.00;70.97;103220.31;5137502;27;20273;-43
2021/04/14 02:31:05;;;;;;;8.27;5.80;;;;;;;2.06;70.42;103222.53;5137821;27;20032;-43
2021/04/14 02:33:30;;;;;;;8.48;5.68;;;;;;;1.85;71.66;103219.66;5137144;27;20027;-43
2021/04/14 02:35:56;;;;;;;9.83;6.13;;;;;;;1.76;71.78;103218.53;5138230;27;20075;-43
2021/04/14 02:38:24;;;;;;;11.20;5.23;;;;;;;1.78;71.50;103219.28;5137745;27;20030;-43
2021/04/14 02:40:50;;;;;;;8.23;5.15;;;;;;;1.78;72.72;103221.09;5137265;27;20110;-43
2021/04/14 02:43:15;;;;;;;10.15;5.82;;;;;;;1.86;71.71;103215.19;5137300;27;20152;-44
2021/04/14 02:45:41;;;;;;;6.87;5.23;;;;;;;1.91;71.64;103211.19;5136354;27;20031;-44
2021/04/14 02:48:08;;;;;;;7.03;5.38;;;;;;;1.86;71.78;103205.38;5137053;27;20027;-43
2021/04/14 02:50:34;;;;;;;7.15;5.38;;;;;;;1.91;71.31;103208.53;5137448;27;20072;-43
2021/04/14 02:52:59;;;;;;;8.17;5.50;;;;;;;1.96;71.50;103210.84;5137136;27;20050;-43
2021/04/14 02:55:27;;;;;;;9.67;5.50;;;;;;;1.93;71.51;103211.06;5137517;27;20257;-43
2021/04/14 02:57:53;;;;;;;8.88;5.10;;;;;;;1.89;71.71;103206.94;5137190;27;20386;-43
2021/04/14 03:00:21;;;;;;;8.50;5.53;;;;;;;1.85;71.62;103205.47;5136962;27;20023;-43
2021/04/14 03:02:47;;;;;;;7.40;5.90;;;;;;;1.89;72.40;103210.44;5136873;27;20019;-43
2021/04/14 03:05:15;;;;;;;8.30;6.03;;;;;;;1.87;72.40;103206.22;5136352;27;20034;-43
2021/04/14 03:07:43;;;;;;;9.38;5.80;;;;;;;1.88;71.55;103199.91;5136594;27;20026;-43
2021/04/14 03:10:10;;;;;;;9.13;5.40;;;;;;;1.87;71.65;103193.72;5136990;27;20030;-43
2021/04/14 03:12:37;;;;;;;7.28;5.53;;;;;;;1.89;71.64;103196.25;5136976;27;20050;-43
2021/04/14 03:15:04;;;;;;;8.55;5.78;;;;;;;1.76;71.56;103191.03;5137393;27;20138;-43
2021/04/14 03:17:29;;;;;;;9.30;5.75;;;;;;;1.86;71.58;103189.34;5136095;27;20027;-43
2021/04/14 03:19:54;;;;;;;10.30;5.57;;;;;;;1.79;72.29;103177.44;5136289;27;20530;-43
2021/04/14 03:22:20;;;;;;;7.30;5.50;;;;;;;1.82;72.18;103176.38;5136335;27;20023;-44
2021/04/14 03:24:45;;;;;;;9.97;6.30;;;;;;;1.78;71.68;103175.72;5136748;27;20123;-43
2021/04/14 03:27:10;;;;;;;10.60;6.30;;;;;;;1.79;72.50;103172.94;5136306;27;20455;-43
2021/04/14 03:29:35;;;;;;;8.43;5.30;;;;;;;1.82;72.21;103171.03;5135606;27;20435;-43
2021/04/14 03:32:01;;;;;;;10.30;5.80;;;;;;;1.92;72.79;103172.03;5136415;27;20110;-43
2021/04/14 03:34:26;;;;;;;8.50;5.73;;;;;;;1.93;71.66;103171.03;5136180;27;20046;-43
2021/04/14 03:36:52;;;;;;;8.20;5.47;;;;;;;2.00;72.26;103169.59;5135871;27;20024;-44
2021/04/14 03:39:17;;;;;;;7.70;5.50;;;;;;;2.05;71.22;103176.31;5136441;27;20437;-44
2021/04/14 03:41:42;;;;;;;10.13;5.60;;;;;;;2.08;70.86;103175.19;5136291;27;20047;-43
2021/04/14 03:44:08;;;;;;;9.23;5.43;;;;;;;2.03;70.46;103175.56;5137124;27;20027;-43
2021/04/14 03:46:33;;;;;;;8.40;5.30;;;;;;;2.05;70.07;103178.13;5136402;27;20042;-44
2021/04/14 03:48:58;;;;;;;6.27;5.13;;;;;;;2.11;70.36;103180.31;5135741;27;20071;-43
2021/04/14 03:51:27;;;;;;;7.73;5.07;;;;;;;2.02;70.79;103184.53;5136556;27;20111;-43
2021/04/14 03:53:54;;;;;;;9.48;5.70;;;;;;;2.09;70.85;103182.22;5135666;27;20019;-43
2021/04/14 03:56:21;;;;;;;8.30;5.55;;;;;;;2.09;71.19;103178.72;5135934;27;20038;-43
2021/04/14 03:58:50;;;;;;;8.75;5.43;;;;;;;1.99;71.03;103173.25;5134614;27;20027;-43
2021/04/14 04:01:27;;;;;;;8.52;5.70;;;;;;;1.96;72.09;103173.50;5135881;27;20492;-43
2021/04/14 04:03:57;;;;;;;6.88;5.40;;;;;;;2.00;71.53;103177.59;5135833;27;20023;-43
2021/04/14 04:06:23;;;;;;;7.50;5.20;;;;;;;2.01;71.41;103174.84;5136139;27;20075;-42
2021/04/14 04:08:49;;;;;;;6.70;5.35;;;;;;;1.97;71.38;103177.84;5135898;27;20023;-43
2021/04/14 04:11:17;;;;;;;8.70;5.10;;;;;;;1.98;72.13;103182.22;5135196;27;20035;-42
2021/04/14 04:13:43;;;;;;;7.57;5.47;;;;;;;1.98;72.90;103174.22;5135507;27;20028;-42
2021/04/14 04:16:08;;;;;;;5.90;4.60;;;;;;;1.98;73.46;103177.72;5135642;27;20041;-42
2021/04/14 04:18:36;;;;;;;7.90;5.17;;;;;;;1.92;72.24;103178.22;5135528;27;20110;-42
2021/04/14 04:21:03;;;;;;;6.30;5.20;;;;;;;1.80;71.64;103177.31;5136022;27;20669;-42
2021/04/14 04:23:28;;;;;;;8.30;6.07;;;;;;;1.75;72.25;103176.81;5135691;27;20070;-42
2021/04/14 04:25:53;;;;;;;8.70;5.50;;;;;;;1.78;72.25;103170.41;5135696;27;20065;-42
2021/04/14 04:28:20;;;;;;;11.00;5.80;;;;;;;1.75;72.58;103176.81;5135112;27;20031;-43
2021/04/14 04:30:50;;;;;;;7.10;5.85;;;;;;;1.75;72.80;103175.97;5135121;27;20060;-43
2021/04/14 04:33:16;;;;;;;7.55;5.45;;;;;;;1.78;73.49;103181.91;5134042;27;20102;-43
2021/04/14 04:35:41;;;;;;;9.98;6.20;;;;;;;1.81;72.10;103183.53;5134770;27;20027;-43
2021/04/14 04:38:07;;;;;;;6.10;5.50;;;;;;;1.78;72.26;103171.25;5135272;27;20027;-43
2021/04/14 04:40:32;;;;;;;7.07;5.13;;;;;;;1.82;73.07;103179.03;5134712;27;20069;-43
2021/04/14 04:42:58;;;;;;;6.07;4.45;;;;;;;1.88;74.48;103178.56;5135431;27;20042;-43
2021/04/14 04:45:27;;;;;;;5.85;5.10;;;;;;;1.87;73.43;103179.53;5134526;27;20019;-43
2021/04/14 04:47:52;;;;;;;9.23;5.90;;;;;;;1.79;73.28;103172.94;5116284;27;20114;-43
2021/04/14 04:50:20;;;;;;;8.05;5.88;;;;;;;1.68;73.47;103172.91;5134927;27;20106;-42
2021/04/14 04:52:45;;;;;;;8.10;6.22;;;;;;;1.63;73.94;103180.41;5134289;27;20030;-43
2021/04/14 04:55:12;;;;;;;7.78;5.88;;;;;;;1.49;74.15;103180.59;5134934;27;20118;-43
2021/04/14 04:57:37;;;;;;;9.77;7.15;;;;;;;1.43;73.92;103183.72;5135038;27;20383;-43
2021/04/14 05:00:07;;;;;;;11.03;6.27;;;;;;;1.39;73.48;103184.91;5135429;27;20031;-43
2021/04/14 05:02:32;;;;;;;6.53;5.55;;;;;;;1.46;74.49;103180.81;5134427;27;20062;-43
2021/04/14 05:04:57;;;;;;;7.90;6.03;;;;;;;1.51;74.79;103189.31;5135369;27;20027;-43
2021/04/14 05:07:23;;;;;;;9.97;6.53;;;;;;;1.48;74.64;103189.56;5134102;27;20071;-43
2021/04/14 05:09:48;;;;;;;7.53;5.60;;;;;;;1.57;74.98;103194.22;5134745;27;20027;-43
2021/04/14 05:12:13;;;;;;;6.73;5.40;;;;;;;1.62;73.84;103192.06;5134569;27;20484;-43
2021/04/14 05:14:39;;;;;;;8.07;6.00;;;;;;;1.65;74.11;103197.13;5133999;27;20491;-43
2021/04/14 05:17:05;;;;;;;8.33;5.87;;;;;;;1.69;74.07;103203.94;5133955;27;20029;-43
2021/04/14 05:19:33;;;;;;;11.05;6.88;;;;;;;1.70;73.75;103200.31;5134714;27;20460;-43
2021/04/14 05:21:59;;;;;;;7.85;6.07;;;;;;;1.68;73.34;103196.91;5134394;27;20054;-43
2021/04/14 05:24:24;;;;;;;11.03;6.57;;;;;;;1.75;73.65;103207.97;5134533;27;20074;-43
2021/04/14 05:26:49;;;;;;;6.33;4.83;;;;;;;1.83;74.83;103204.75;5133978;27;20023;-43
2021/04/14 05:29:15;;;;;;;10.70;6.13;;;;;;;1.76;74.24;103205.22;5134053;27;20106;-43
2021/04/14 05:31:41;;;;;;;9.35;6.35;;;;;;;1.82;74.05;103203.03;5134068;27;20102;-43
2021/04/14 05:34:07;;;;;;;7.60;6.03;;;;;;;1.86;74.13;103201.84;5134554;27;20113;-43
2021/04/14 05:36:33;;;;;;;10.88;6.95;;;;;;;1.87;74.50;103203.53;5134583;27;20476;-43
2021/04/14 05:38:58;;;;;;;9.57;5.90;;;;;;;1.89;74.12;103202.44;5135009;27;20114;-43
2021/04/14 05:41:24;;;;;;;9.57;6.30;;;;;;;1.97;73.11;103216.06;5134532;27;20035;-43
2021/04/14 05:43:49;;;;;;;10.03;6.43;;;;;;;2.01;73.57;103219.34;5134169;27;20378;-43
2021/04/14 05:46:17;;;;;;;7.30;5.60;;;;;;;2.13;73.47;103218.41;5134015;27;20478;-43
2021/04/14 05:48:44;;;;;;;10.20;6.57;;;;;;;2.17;73.51;103213.69;5133846;27;20095;-42
2021/04/14 05:51:14;;;;;;;12.00;6.15;;;;;;;2.23;73.12;103219.41;5134292;27;20027;-43
2021/04/14 05:53:40;;;;;;;7.72;6.22;;;;;;;2.30;71.79;103209.97;5134010;27;20027;-43
2021/04/14 05:56:06;;;;;;;;;;;;;;;2.43;71.45;103219.66;5134879;27;20360;-43
2021/04/14 05:58:32;;;;;;;7.55;6.25;;;;;;;2.43;71.26;103222.34;5134278;27;20316;-43
2021/04/14 06:00:58;;;;;;;10.38;6.80;;;;;;;2.48;71.42;103223.69;5135906;27;20023;-43
2021/04/14 06:03:26;;;;;;;8.68;6.57;;;;;;;2.49;71.61;103224.53;5137875;27;20037;-43
2021/04/14 06:05:57;;;;;;;7.47;6.00;;;;;;;2.57;72.85;103220.28;5138984;27;20027;-43
2021/04/14 06:08:25;;;;;;;7.32;5.90;;;;;;;2.66;73.11;103229.41;5138013;27;20437;-43
2021/04/14 06:10:50;;;;;;;7.40;5.85;;;;;;;2.64;71.80;103239.38;5138290;27;20063;-44
2021/04/14 06:13:17;;;;;;;8.60;6.13;;;;;;;2.73;72.77;103235.09;5137656;27;20372;-43
2021/04/14 06:15:43;;;;;;;9.57;6.25;;;;;;;2.77;71.09;103236.56;5138679;27;20102;-43
2021/04/14 06:18:08;;;;;;;;;;;;;;;2.91;70.93;103236.34;5138477;27;20023;-43
2021/04/14 06:20:34;;;;;;;8.13;6.07;;;;;;;2.86;69.82;103233.19;5138423;27;20413;-43
2021/04/14 06:23:02;;;;;;;8.98;6.22;;;;;;;2.94;69.96;103236.09;5137605;27;20043;-43
2021/04/14 06:25:32;;;;;;;9.82;6.40;;;;;;;3.17;69.42;103241.41;5137697;27;20023;-43
2021/04/14 06:28:05;;;;;;;10.23;6.25;;;;;;;3.25;69.06;103242.50;5137457;27;20041;-44
2021/04/14 06:30:30;;;;;;;10.10;6.45;;;;;;;3.31;68.53;103236.63;5138218;27;20080;-44
2021/04/14 06:32:56;;;;;;;7.70;6.05;;;;;;;3.38;67.85;103250.38;5137680;27;20031;-43
2021/04/14 06:35:23;;;;;;;8.23;6.40;;;;;;;3.38;68.00;103244.19;5138212;27;20035;-43
2021/04/14 06:37:48;;;;;;;8.63;6.35;;;;;;;3.49;67.96;103241.47;5137780;27;20083;-44
2021/04/14 06:43:08;;;;;;;8.52;6.28;;;;;;;3.80;67.98;103248.66;5137431;27;20038;-43
2021/04/14 06:45:44;;;;;;;10.45;6.70;;;;;;;3.81;67.86;103247.69;5137917;27;20035;-43
2021/04/14 06:48:24;;;;;;;7.93;5.90;;;;;;;4.01;69.09;103245.19;5137869;27;20031;-43
2021/04/14 06:50:54;;;;;;;7.28;6.00;;;;;;;4.06;66.92;103240.28;5138073;27;20110;-43
2021/04/14 06:53:31;;;;;;;6.97;5.72;;;;;;;4.24;67.98;103241.38;5137752;27;20027;-43
2021/04/14 06:55:59;;;;;;;13.52;6.22;;;;;;;4.22;66.24;103239.81;5137264;27;20057;-43
2021/04/14 06:58:45;;;;;;;10.57;5.50;;;;;;;4.36;66.70;103242.16;5136831;27;20037;-43
2021/04/14 07:01:16;;;;;;;9.65;6.35;;;;;;;4.43;64.94;103243.34;5137894;27;20031;-43
2021/04/14 07:03:49;;;;;;;8.93;5.45;;;;;;;4.59;63.90;103237.53;5136671;27;20060;-43
2021/04/14 07:06:19;;;;;;;7.90;5.70;;;;;;;4.72;62.85;103237.28;5136995;27;20054;-43
2021/04/14 07:08:56;;;;;;;7.15;5.13;;;;;;;4.82;63.37;103233.66;5136650;27;20023;-43
2021/04/14 07:11:22;;;;;;;7.97;5.10;;;;;;;4.88;61.26;103227.78;5137137;27;20122;-43
2021/04/14 07:13:48;;;;;;;10.57;4.75;;;;;;;4.94;59.73;103233.56;5135935;27;20450;-42
2021/04/14 07:16:45;;;;;;;11.07;4.65;;;;;;;5.01;60.63;103232.03;5137283;27;20084;-43
2021/04/14 07:19:44;;;;;;;9.75;4.25;;;;;;;5.16;60.52;103231.50;5136260;27;20067;-43
2021/04/14 07:22:18;;;;;;;6.68;4.30;;;;;;;5.33;59.83;103229.16;5137138;27;20413;-44
2021/04/14 07:24:51;;;;;;;8.32;4.68;;;;;;;5.40;58.46;103227.63;5137062;27;20043;-43
2021/04/14 07:27:31;;;;;;;5.47;3.95;;;;;;;5.57;59.16;103234.16;5136775;27;20031;-44
2021/04/14 07:30:19;;;;;;;5.72;3.70;;;;;;;5.67;59.40;103235.00;5136692;27;20076;-43
2021/04/14 07:32:44;;;;;;;9.35;3.90;;;;;;;5.69;57.86;103220.44;5136158;27;20471;-44
2021/04/14 07:35:11;;;;;;;7.73;3.67;;;;;;;5.80;57.87;103235.56;5137024;27;20023;-44
2021/04/14 07:37:55;;;;;;;;;;;;;;;5.97;60.25;103228.69;5136762;27;20031;-44
2021/04/14 07:40:23;;;;;;;6.55;3.72;;;;;;;5.98;58.10;103227.69;5136953;27;19994;-44
2021/04/14 07:43:17;;;;;;;7.03;4.20;;;;;;;5.99;58.76;103226.69;5136618;27;20427;-44
2021/04/14 07:45:43;;;;;;;7.78;3.83;;;;;;;6.04;58.30;103232.47;5137010;27;20035;-44
2021/04/14 07:48:10;;;;;;;9.75;3.85;;;;;;;6.09;57.39;103240.09;5136005;27;20030;-44
2021/04/14 07:50:37;;;;;;;7.00;4.60;;;;;;;6.12;57.58;103246.03;5135978;27;20043;-44
2021/04/14 07:53:18;;;;;;;6.75;4.55;;;;;;;6.18;58.66;103239.25;5136040;27;20045;-44
2021/04/14 07:55:44;;;;;;;7.60;5.35;;;;;;;6.20;58.62;103248.03;5136604;27;20027;-45
2021/04/14 07:58:16;;;;;;;6.63;5.07;;;;;;;6.33;58.29;103247.72;5135956;27;20087;-44
2021/04/14 08:00:46;;;;;;;7.85;4.90;;;;;;;6.52;58.76;103241.44;5136570;27;20252;-44
2021/04/14 08:03:26;;;;;;;9.45;6.10;;;;;;;6.56;57.71;103237.47;5135785;27;20126;-44
2021/04/14 08:05:51;;;;;;;6.95;5.30;;;;;;;6.72;58.10;103243.06;5136877;27;20355;-43
2021/04/14 08:08:38;;;;;;;8.70;5.20;;;;;;;6.85;57.81;103232.00;5135915;27;20027;-44
2021/04/14 08:11:10;;;;;;;10.63;5.28;;;;;;;6.68;55.37;103233.59;5135979;27;20106;-44
2021/04/14 08:13:40;;;;;;;9.23;5.85;;;;;;;6.74;57.51;103243.78;5134697;27;20030;-43
2021/04/14 08:16:12;;;;;;;7.78;5.30;;;;;;;6.87;56.59;103241.59;5136381;27;20115;-43
2021/04/14 08:18:47;;;;;;;8.45;5.38;;;;;;;7.09;55.97;103234.16;5135506;27;20042;-43
2021/04/14 08:21:23;;;;;;;8.60;4.97;;;;;;;7.27;56.06;103234.16;5136092;27;20030;-43
2021/04/14 08:24:02;;;;;;;6.85;4.72;;;;;;;7.38;55.28;103234.81;5135459;27;20077;-44
2021/04/14 08:26:29;;;;;;;8.02;4.75;;;;;;;7.13;53.49;103240.94;5135687;27;20035;-44
2021/04/14 08:29:10;;;;;;;7.68;5.20;;;;;;;7.12;54.60;103241.91;5135525;27;20023;-43
2021/04/14 08:31:48;;;;;;;6.50;4.53;;;;;;;7.09;55.78;103242.22;5135293;27;20114;-43
2021/04/14 08:34:21;;;;;;;6.63;4.93;;;;;;;7.14;56.01;103248.00;5135727;27;20041;-44
2021/04/14 08:37:00;;;;;;;7.07;4.28;;;;;;;7.18;55.35;103242.16;5135977;27;20110;-44
2021/04/14 08:39:34;;;;;;;6.80;4.60;;;;;;;7.24;54.48;103248.78;5135148;27;20023;-43
2021/04/14 08:42:22;;;;;;;8.10;4.95;;;;;;;7.26;54.80;103252.16;5135367;27;20027;-43
2021/04/14 08:44:54;;;;;;;5.68;3.92;;;;;;;7.26;53.23;103249.47;5135743;27;20023;-44
2021/04/14 08:47:22;;;;;;;10.45;4.20;;;;;;;7.28;53.70;103244.81;5135175;27;20027;-43
2021/04/14 08:49:51;;;;;;;6.53;4.07;;;;;;;7.24;51.42;103243.41;5135508;27;20054;-43
2021/04/14 08:52:20;;;;;;;7.68;4.22;;;;;;;7.30;51.11;103252.72;5134756;27;20034;-43
2021/04/14 08:54:47;;;;;;;5.47;3.70;;;;;;;7.28;50.42;103244.81;5134898;27;20072;-44
2021/04/14 08:57:13;;;;;;;9.35;5.15;;;;;;;7.30;52.43;103247.34;5135510;27;20110;-43
2021/04/14 08:59:39;;;;;;;;;;;;;;;7.54;52.89;103244.06;5135812;27;20067;-43
2021/04/14 09:02:07;;;;;;;7.45;4.57;;;;;;;7.69;50.28;103246.06;5134676;27;20374;-44
2021/04/14 09:04:34;;;;;;;6.53;4.90;;;;;;;7.86;51.42;103240.88;5135280;27;20027;-44
2021/04/14 09:07:01;;;;;;;7.85;5.00;;;;;;;8.12;51.54;103244.44;5134301;27;20027;-44
2021/04/14 09:09:29;;;;;;;7.60;5.00;;;;;;;8.26;51.30;103248.44;5134515;27;20027;-43
2021/04/14 09:12:01;;;;;;;8.80;5.55;;;;;;;8.21;51.96;103248.91;5134534;27;20034;-44
2021/04/14 09:14:30;;;;;;;6.85;5.05;;;;;;;8.11;51.28;103242.75;5134536;27;20027;-42
2021/04/14 09:17:20;;;;;;;8.93;5.32;;;;;;;8.08;52.40;103250.31;5134496;27;20027;-43
2021/04/14 09:19:47;;;;;;;8.40;5.60;;;;;;;8.02;50.81;103241.00;5091921;28;20050;-43
2021/04/14 09:22:13;;;;;;;6.57;5.50;;;;;;;8.08;51.38;103240.38;5091332;28;20047;-44
2021/04/14 09:24:56;;;;;;;8.77;6.00;;;;;;;8.19;52.73;103250.03;5091739;28;20036;-43
2021/04/14 09:27:30;;;;;;;6.90;5.70;;;;;;;8.38;51.68;103251.72;5091372;28;20386;-43
2021/04/14 09:30:11;;;;;;;9.32;6.38;;;;;;;8.56;52.49;103243.59;5091334;28;20032;-43
2021/04/14 09:32:45;;;;;;;10.07;7.20;;;;;;;8.58;53.94;103245.13;5091409;28;20039;-43
2021/04/14 09:35:24;;;;;;;8.95;7.10;;;;;;;8.48;53.85;103247.09;5090519;28;20200;-44
2021/04/14 09:37:52;;;;;;;11.20;7.60;;;;;;;8.33;55.82;103249.47;5091056;28;20044;-43
2021/04/14 09:40:34;;;;;;;10.20;8.13;;;;;;;8.42;57.01;103256.66;5091064;28;20067;-43
2021/04/14 09:42:59;;;;;;;9.40;7.80;;;;;;;8.04;53.87;103246.22;5091739;28;20040;-43
2021/04/14 09:45:27;;;;;;;9.37;7.73;;;;;;;7.97;56.03;103246.00;5091276;28;20485;-43
2021/04/14 09:47:54;;;;;;;11.23;9.23;;;;;;;7.84;56.78;103251.78;5091309;28;20081;-43
2021/04/14 09:50:29;;;;;;;13.20;8.95;;;;;;;7.90;56.92;103251.16;5091032;28;20044;-43
2021/04/14 09:53:14;;;;;;;11.05;8.63;;;;;;;7.98;57.10;103245.84;5091167;28;20145;-43
2021/04/14 09:55:46;;;;;;;10.43;8.35;;;;;;;7.95;56.73;103248.00;5079694;28;20040;-43
2021/04/14 09:58:35;;;;;;;11.52;9.50;;;;;;;8.09;56.02;103244.75;5133009;28;20050;-43
2021/04/14 10:01:22;;;;;;;11.55;8.30;;;;;;;8.20;55.17;103246.38;5134579;27;20029;-43
2021/04/14 10:03:48;;;;;;;10.38;8.45;;;;;;;8.42;54.88;103250.41;5132725;28;20062;-43
2021/04/14 10:06:20;;;;;;;10.63;8.55;;;;;;;8.64;54.39;103240.97;5133967;27;20470;-43
2021/04/14 10:08:45;;;;;;;9.65;8.35;;;;;;;8.75;53.92;103240.69;5133647;27;20039;-43
2021/04/14 10:11:26;;;;;;;15.53;10.93;;;;;;;8.34;53.89;103243.06;5134315;27;20035;-43
2021/04/14 10:13:54;;;;;;;9.75;8.23;;;;;;;8.62;53.83;103229.47;5134121;27;20023;-43
2021/04/14 10:16:25;;;;;;;12.07;8.70;;;;;;;8.55;53.02;103233.84;5133836;27;20035;-41
2021/04/14 10:19:01;;;;;;;10.00;7.32;;;;;;;8.66;50.60;103228.16;5134477;27;20027;-41
2021/04/14 10:21:28;;;;;;;8.83;5.57;;;;;;;8.76;49.39;103224.31;5134102;27;20072;-42
2021/04/14 10:24:08;;;;;;;10.02;5.80;;;;;;;9.05;48.49;103230.38;5133858;27;20047;-43
2021/04/14 10:26:36;;;;;;;7.32;4.88;;;;;;;9.08;45.55;103221.91;5133968;27;20032;-43
2021/04/14 10:29:07;;;;;;;5.20;3.80;;;;;;;9.34;45.60;103216.44;5133939;27;20106;-43
2021/04/14 10:31:34;;;;;;;6.85;4.50;;;;;;;9.32;44.15;103216.63;5133762;27;20026;-43
2021/04/14 10:34:22;;;;;;;6.95;4.03;;;;;;;9.69;45.54;103207.22;5133895;27;20038;-41
2021/04/14 10:36:47;;;;;;;7.85;5.97;;;;;;;10.06;44.85;103206.72;5134467;27;20398;-41
2021/04/14 10:39:16;;;;;;;8.10;5.83;;;;;;;10.34;45.60;103201.81;5133349;27;20031;-41
2021/04/14 10:41:43;;;;;;;9.00;5.53;;;;;;;10.41;42.22;103199.28;5133793;27;20057;-41
2021/04/14 10:44:21;;;;;;;6.05;4.72;;;;;;;10.35;43.49;103214.34;5133259;27;20039;-41
2021/04/14 10:46:47;;;;;;;6.03;4.90;;;;;;;10.11;43.12;103209.78;5134938;27;20019;-41
2021/04/14 10:49:26;;;;;;;7.03;5.22;;;;;;;9.95;44.71;103196.25;5137375;27;20023;-41
2021/04/14 10:51:59;;;;;;;5.63;5.00;;;;;;;9.42;44.37;103201.13;5137534;27;20035;-41
2021/04/14 10:54:29;;;;;;;8.00;5.75;;;;;;;9.09;44.86;103204.75;5136964;27;20027;-41
2021/04/14 10:57:01;;;;;;;8.35;6.18;;;;;;;9.21;46.97;103198.00;5137059;27;20031;-41
2021/04/14 10:59:27;;;;;;;9.82;6.50;;;;;;;9.33;47.04;103196.72;5136612;27;20027;-41
2021/04/14 11:01:53;;;;;;;7.20;5.60;;;;;;;9.42;44.76;103189.44;5136574;27;20409;-41
2021/04/14 11:04:31;;;;;;;8.27;5.10;;;;;;;9.46;45.76;103194.34;5137748;27;20052;-41
2021/04/14 11:07:07;;;;;;;6.28;4.00;;;;;;;9.44;45.83;103193.69;5136969;27;20127;-43
2021/04/14 11:09:38;;;;;;;5.13;3.50;;;;;;;9.45;45.19;103192.66;5136761;27;20023;-47
2021/04/14 11:12:09;;;;;;;8.48;3.75;;;;;;;9.40;44.50;103183.38;5136574;27;20024;-42
2021/04/14 11:14:37;;;;;;;6.57;3.55;;;;;;;9.46;43.75;103178.16;5136844;27;20027;-43
2021/04/14 11:17:04;;;;;;;6.00;3.83;;;;;;;9.69;42.96;103174.81;5137462;27;20061;-42
2021/04/14 11:19:29;;;;;;;;;;;;;;;9.99;42.41;103171.41;5137110;27;20023;-43
2021/04/14 11:22:11;;;;;;;5.28;3.95;;;;;;;9.94;40.36;103162.13;5137172;27;20236;-41
2021/04/14 11:24:48;;;;;;;6.65;4.78;;;;;;;10.00;39.85;103161.44;5136542;27;20043;-42
2021/04/14 11:27:23;;;;;;;8.02;4.22;;;;;;;10.15;39.37;103170.56;5136580;27;20046;-44
2021/04/14 11:29:51;;;;;;;7.07;4.43;;;;;;;10.27;37.65;103154.84;5136477;27;20123;-41
2021/04/14 11:32:19;;;;;;;5.00;4.10;;;;;;;10.36;36.47;103156.50;5136716;27;20027;-41
2021/04/14 11:35:00;;;;;;;5.80;4.57;;;;;;;10.50;37.74;103155.78;5137149;27;20038;-42
2021/04/14 11:37:47;;;;;;;6.43;4.35;;;;;;;10.74;37.99;103154.88;5136560;27;20084;-42
2021/04/14 11:40:18;;;;;;;6.85;4.63;;;;;;;10.82;37.12;103153.97;5136425;27;20042;-42
2021/04/14 11:42:54;;;;;;;6.55;4.32;;;;;;;10.81;36.35;103150.41;5136173;27;20027;-42
2021/04/14 11:45:27;;;;;;;5.03;3.83;;;;;;;10.95;36.49;103145.28;5137032;27;20364;-43